Säätilassa ei varoituksia.

Lähimmät METAR asemat

 

EFPO - Pori (mil/Civ), Finland
Distance from station: PLU 42km
Päivitetty: 18/02/2020 06:20
Selkeätä
Selkeätä
 Wind from L
Tuuli: L 24 km/h, Puuskatuuli: 43 km/h
Lämpötila: 5°C
Wind Chill: 1°C
Kastepiste: 0°C
Kosteus: 70%
Ilmanpaine: 984 hPa
Yhteenveto: Selkeätä
Visibility: greater than 10 km
2020/02/18 04:20 EFPO 180420Z AUTO 26013G23KT 230V290 CAVOK 05/00 Q0984
EFTU - Turku/Abo, Finland
Distance from station: E 68km
Päivitetty: 18/02/2020 06:20
Selkeätä
Selkeätä
 Wind from LLO
Tuuli: LLO 24 km/h
Lämpötila: 5°C
Wind Chill: 1°C
Kastepiste: 2°C
Kosteus: 81%
Ilmanpaine: 987 hPa
Yhteenveto: Selkeätä
Visibility: greater than 10 km
2020/02/18 04:20 EFTU 180420Z AUTO 24013KT CAVOK 05/02 Q0987
 
EFTP - Tampere/Pirkkala, Finland
Distance from station: IKO 84km
Päivitetty: 18/02/2020 06:20
Enimmäkseen pilvistä
Enimmäkseen pilvistä
 Wind from LLO
Tuuli: LLO 26 km/h
Lämpötila: 4°C
Wind Chill: -1°C
Kastepiste: 1°C
Kosteus: 81%
Ilmanpaine: 983 hPa
Clouds: Enimmäkseen pilvistä
Visibility: 10 km
Cloud details: Enimmäkseen pilvistä 1494 m
2020/02/18 04:20 EFTP 180420Z AUTO 24014KT 9999 BKN049 04/01 Q0983